Terminal Aerodrome Forecast
Issued by NWS Quad Cities IA IL

Home | Current Version | Previous Version | Text Only | Print | Product List | Glossary On
Versions: 1 2 3 4 5 6 7 8 9 10 11 12 13 14 15 16 17 18 19
000
FTUS43 KDVN 261132
TAFMLI
TAF
KMLI 261132Z 2612/2712 15007KT P6SM BKN150
     FM262100 19010KT P6SM VCTS BKN050CB PROB30 2621/2624 4SM TSRA
      BKN040CB
     FM270000 VRB04KT 4SM TSRA OVC030CB
     FM270500 02004KT P6SM VCSH BKN020=

USA.gov is the U.S. government's official web portal to all federal, state and local government web resources and services.